sensor_id;sensor_type;location;lat;lon;timestamp;P1;durP1;ratioP1;P2;durP2;ratioP2
76848;SDS011;65814;51.134;16.980;2023-04-06T00:02:16;46.10;;;25.80;;
76848;SDS011;65814;51.134;16.980;2023-04-06T00:04:45;43.90;;;24.40;;
76848;SDS011;65814;51.134;16.980;2023-04-06T00:07:13;40.00;;;23.40;;
76848;SDS011;65814;51.134;16.980;2023-04-06T00:09:41;51.00;;;25.20;;
76848;SDS011;65814;51.134;16.980;2023-04-06T00:12:09;47.00;;;28.00;;
76848;SDS011;65814;51.134;16.980;2023-04-06T00:14:37;45.80;;;24.50;;
76848;SDS011;65814;51.134;16.980;2023-04-06T00:17:05;48.10;;;24.40;;
76848;SDS011;65814;51.134;16.980;2023-04-06T00:19:33;50.30;;;25.60;;
76848;SDS011;65814;51.134;16.980;2023-04-06T00:22:01;48.10;;;25.80;;
76848;SDS011;65814;51.134;16.980;2023-04-06T00:24:29;51.40;;;26.30;;
76848;SDS011;65814;51.134;16.980;2023-04-06T00:26:58;49.60;;;27.00;;
76848;SDS011;65814;51.134;16.980;2023-04-06T00:29:26;44.10;;;25.70;;
76848;SDS011;65814;51.134;16.980;2023-04-06T00:31:53;54.90;;;26.30;;
76848;SDS011;65814;51.134;16.980;2023-04-06T00:34:22;48.30;;;26.10;;
76848;SDS011;65814;51.134;16.980;2023-04-06T00:36:50;49.50;;;24.20;;
76848;SDS011;65814;51.134;16.980;2023-04-06T00:39:17;47.60;;;24.70;;
76848;SDS011;65814;51.134;16.980;2023-04-06T00:41:49;50.30;;;25.50;;
76848;SDS011;65814;51.134;16.980;2023-04-06T00:44:19;45.40;;;26.00;;
76848;SDS011;65814;51.134;16.980;2023-04-06T00:46:47;50.00;;;25.90;;
76848;SDS011;65814;51.134;16.980;2023-04-06T00:49:15;49.20;;;27.40;;
76848;SDS011;65814;51.134;16.980;2023-04-06T00:51:43;54.30;;;28.70;;
76848;SDS011;65814;51.134;16.980;2023-04-06T00:54:12;48.90;;;27.90;;
76848;SDS011;65814;51.134;16.980;2023-04-06T00:56:41;59.50;;;28.80;;
76848;SDS011;65814;51.134;16.980;2023-04-06T00:59:10;64.10;;;35.40;;
76848;SDS011;65814;51.134;16.980;2023-04-06T01:01:39;64.70;;;33.70;;
76848;SDS011;65814;51.134;16.980;2023-04-06T01:04:07;64.40;;;35.90;;
76848;SDS011;65814;51.134;16.980;2023-04-06T01:06:35;63.90;;;33.80;;
76848;SDS011;65814;51.134;16.980;2023-04-06T01:09:03;70.40;;;37.20;;
76848;SDS011;65814;51.134;16.980;2023-04-06T01:11:31;60.50;;;34.40;;
76848;SDS011;65814;51.134;16.980;2023-04-06T01:14:00;74.60;;;37.60;;
76848;SDS011;65814;51.134;16.980;2023-04-06T01:16:28;64.40;;;35.00;;
76848;SDS011;65814;51.134;16.980;2023-04-06T01:18:56;65.50;;;37.20;;
76848;SDS011;65814;51.134;16.980;2023-04-06T01:21:24;69.80;;;37.90;;
76848;SDS011;65814;51.134;16.980;2023-04-06T01:23:53;55.80;;;34.90;;
76848;SDS011;65814;51.134;16.980;2023-04-06T01:26:21;72.10;;;37.30;;
76848;SDS011;65814;51.134;16.980;2023-04-06T01:28:49;76.40;;;38.90;;
76848;SDS011;65814;51.134;16.980;2023-04-06T01:31:17;70.70;;;36.50;;
76848;SDS011;65814;51.134;16.980;2023-04-06T01:33:45;84.10;;;41.70;;
76848;SDS011;65814;51.134;16.980;2023-04-06T01:36:13;77.40;;;46.30;;
76848;SDS011;65814;51.134;16.980;2023-04-06T01:38:42;73.10;;;38.10;;
76848;SDS011;65814;51.134;16.980;2023-04-06T01:41:10;72.40;;;37.10;;
76848;SDS011;65814;51.134;16.980;2023-04-06T01:43:38;68.40;;;36.70;;
76848;SDS011;65814;51.134;16.980;2023-04-06T01:46:06;70.40;;;37.90;;
76848;SDS011;65814;51.134;16.980;2023-04-06T01:48:35;69.10;;;36.40;;
76848;SDS011;65814;51.134;16.980;2023-04-06T01:51:03;67.30;;;37.00;;
76848;SDS011;65814;51.134;16.980;2023-04-06T01:53:32;76.10;;;41.80;;
76848;SDS011;65814;51.134;16.980;2023-04-06T01:56:00;78.50;;;37.90;;
76848;SDS011;65814;51.134;16.980;2023-04-06T01:58:28;65.30;;;37.00;;
76848;SDS011;65814;51.134;16.980;2023-04-06T02:00:56;68.90;;;37.20;;
76848;SDS011;65814;51.134;16.980;2023-04-06T02:03:25;65.50;;;35.40;;
76848;SDS011;65814;51.134;16.980;2023-04-06T02:05:52;65.30;;;37.50;;
76848;SDS011;65814;51.134;16.980;2023-04-06T02:08:20;77.30;;;40.30;;
76848;SDS011;65814;51.134;16.980;2023-04-06T02:10:48;77.60;;;43.10;;
76848;SDS011;65814;51.134;16.980;2023-04-06T02:13:16;73.30;;;37.60;;
76848;SDS011;65814;51.134;16.980;2023-04-06T02:15:44;71.00;;;38.70;;
76848;SDS011;65814;51.134;16.980;2023-04-06T02:18:13;71.90;;;39.90;;
76848;SDS011;65814;51.134;16.980;2023-04-06T02:20:40;72.70;;;37.30;;
76848;SDS011;65814;51.134;16.980;2023-04-06T02:23:09;70.70;;;35.60;;
76848;SDS011;65814;51.134;16.980;2023-04-06T02:25:37;72.00;;;37.90;;
76848;SDS011;65814;51.134;16.980;2023-04-06T02:28:05;68.20;;;38.70;;
76848;SDS011;65814;51.134;16.980;2023-04-06T02:30:33;75.40;;;41.10;;
76848;SDS011;65814;51.134;16.980;2023-04-06T02:33:02;71.30;;;36.70;;
76848;SDS011;65814;51.134;16.980;2023-04-06T02:35:30;75.00;;;39.90;;
76848;SDS011;65814;51.134;16.980;2023-04-06T02:37:59;83.50;;;37.90;;
76848;SDS011;65814;51.134;16.980;2023-04-06T02:40:27;79.20;;;39.70;;
76848;SDS011;65814;51.134;16.980;2023-04-06T02:42:55;84.10;;;43.10;;
76848;SDS011;65814;51.134;16.980;2023-04-06T02:45:23;85.90;;;44.10;;
76848;SDS011;65814;51.134;16.980;2023-04-06T02:47:51;71.60;;;38.50;;
76848;SDS011;65814;51.134;16.980;2023-04-06T02:50:19;72.20;;;40.20;;
76848;SDS011;65814;51.134;16.980;2023-04-06T02:52:47;76.10;;;39.10;;
76848;SDS011;65814;51.134;16.980;2023-04-06T02:55:15;75.90;;;39.70;;
76848;SDS011;65814;51.134;16.980;2023-04-06T02:57:43;74.70;;;40.10;;
76848;SDS011;65814;51.134;16.980;2023-04-06T03:00:11;78.80;;;39.20;;
76848;SDS011;65814;51.134;16.980;2023-04-06T03:02:40;71.80;;;38.70;;
76848;SDS011;65814;51.134;16.980;2023-04-06T03:05:08;73.80;;;39.20;;
76848;SDS011;65814;51.134;16.980;2023-04-06T03:07:36;72.90;;;39.40;;
76848;SDS011;65814;51.134;16.980;2023-04-06T03:10:04;78.60;;;38.10;;
76848;SDS011;65814;51.134;16.980;2023-04-06T03:12:32;77.70;;;38.80;;
76848;SDS011;65814;51.134;16.980;2023-04-06T03:15:00;65.40;;;40.60;;
76848;SDS011;65814;51.134;16.980;2023-04-06T03:17:28;70.10;;;38.40;;
76848;SDS011;65814;51.134;16.980;2023-04-06T03:19:56;70.60;;;37.40;;
76848;SDS011;65814;51.134;16.980;2023-04-06T03:22:24;77.70;;;42.20;;
76848;SDS011;65814;51.134;16.980;2023-04-06T03:24:52;67.30;;;36.30;;
76848;SDS011;65814;51.134;16.980;2023-04-06T03:27:20;68.00;;;36.80;;
76848;SDS011;65814;51.134;16.980;2023-04-06T03:29:48;71.80;;;37.50;;
76848;SDS011;65814;51.134;16.980;2023-04-06T03:32:16;64.30;;;35.80;;
76848;SDS011;65814;51.134;16.980;2023-04-06T03:34:44;67.90;;;36.70;;
76848;SDS011;65814;51.134;16.980;2023-04-06T03:37:12;72.20;;;37.30;;
76848;SDS011;65814;51.134;16.980;2023-04-06T03:39:40;63.10;;;34.80;;
76848;SDS011;65814;51.134;16.980;2023-04-06T03:42:08;66.40;;;36.70;;
76848;SDS011;65814;51.134;16.980;2023-04-06T03:44:36;63.50;;;34.00;;
76848;SDS011;65814;51.134;16.980;2023-04-06T03:47:04;68.70;;;36.20;;
76848;SDS011;65814;51.134;16.980;2023-04-06T03:49:33;68.90;;;36.00;;
76848;SDS011;65814;51.134;16.980;2023-04-06T03:52:01;73.20;;;36.10;;
76848;SDS011;65814;51.134;16.980;2023-04-06T03:54:29;68.70;;;34.80;;
76848;SDS011;65814;51.134;16.980;2023-04-06T03:56:56;68.20;;;36.80;;
76848;SDS011;65814;51.134;16.980;2023-04-06T03:59:24;60.60;;;31.90;;
76848;SDS011;65814;51.134;16.980;2023-04-06T04:01:52;71.50;;;35.40;;
76848;SDS011;65814;51.134;16.980;2023-04-06T04:04:20;62.80;;;34.70;;
76848;SDS011;65814;51.134;16.980;2023-04-06T04:06:48;63.50;;;32.60;;
76848;SDS011;65814;51.134;16.980;2023-04-06T04:09:17;64.60;;;35.60;;
76848;SDS011;65814;51.134;16.980;2023-04-06T04:11:44;69.90;;;35.40;;
76848;SDS011;65814;51.134;16.980;2023-04-06T04:14:12;73.40;;;35.70;;
76848;SDS011;65814;51.134;16.980;2023-04-06T04:16:40;64.00;;;32.40;;
76848;SDS011;65814;51.134;16.980;2023-04-06T04:19:09;60.30;;;32.30;;
76848;SDS011;65814;51.134;16.980;2023-04-06T04:21:44;61.30;;;33.80;;
76848;SDS011;65814;51.134;16.980;2023-04-06T04:24:13;66.30;;;35.40;;
76848;SDS011;65814;51.134;16.980;2023-04-06T04:26:41;68.90;;;35.30;;
76848;SDS011;65814;51.134;16.980;2023-04-06T04:29:09;62.60;;;33.80;;
76848;SDS011;65814;51.134;16.980;2023-04-06T04:31:37;65.30;;;36.30;;
76848;SDS011;65814;51.134;16.980;2023-04-06T04:34:05;71.20;;;34.80;;
76848;SDS011;65814;51.134;16.980;2023-04-06T04:36:34;63.80;;;33.80;;
76848;SDS011;65814;51.134;16.980;2023-04-06T04:39:02;66.50;;;32.30;;
76848;SDS011;65814;51.134;16.980;2023-04-06T04:41:30;64.80;;;34.90;;
76848;SDS011;65814;51.134;16.980;2023-04-06T04:43:58;65.80;;;34.60;;
76848;SDS011;65814;51.134;16.980;2023-04-06T04:46:26;67.10;;;34.70;;
76848;SDS011;65814;51.134;16.980;2023-04-06T04:48:54;64.30;;;33.20;;
76848;SDS011;65814;51.134;16.980;2023-04-06T04:51:22;59.60;;;34.20;;
76848;SDS011;65814;51.134;16.980;2023-04-06T04:53:50;61.10;;;31.00;;
76848;SDS011;65814;51.134;16.980;2023-04-06T04:56:18;67.20;;;36.90;;
76848;SDS011;65814;51.134;16.980;2023-04-06T04:58:45;65.80;;;33.60;;
76848;SDS011;65814;51.134;16.980;2023-04-06T05:01:13;64.90;;;35.60;;
76848;SDS011;65814;51.134;16.980;2023-04-06T05:03:42;64.30;;;36.20;;
76848;SDS011;65814;51.134;16.980;2023-04-06T05:06:10;64.60;;;33.00;;
76848;SDS011;65814;51.134;16.980;2023-04-06T05:08:40;62.60;;;34.30;;
76848;SDS011;65814;51.134;16.980;2023-04-06T05:11:09;56.90;;;31.80;;
76848;SDS011;65814;51.134;16.980;2023-04-06T05:13:37;64.40;;;33.70;;
76848;SDS011;65814;51.134;16.980;2023-04-06T05:16:05;61.60;;;33.20;;
76848;SDS011;65814;51.134;16.980;2023-04-06T05:18:34;66.50;;;32.90;;
76848;SDS011;65814;51.134;16.980;2023-04-06T05:21:02;63.80;;;34.30;;
76848;SDS011;65814;51.134;16.980;2023-04-06T05:23:30;64.60;;;35.10;;
76848;SDS011;65814;51.134;16.980;2023-04-06T05:25:58;67.30;;;34.30;;
76848;SDS011;65814;51.134;16.980;2023-04-06T05:28:26;65.40;;;34.30;;
76848;SDS011;65814;51.134;16.980;2023-04-06T05:30:54;71.60;;;38.00;;
76848;SDS011;65814;51.134;16.980;2023-04-06T05:33:22;71.60;;;35.90;;
76848;SDS011;65814;51.134;16.980;2023-04-06T05:35:51;68.00;;;32.50;;
76848;SDS011;65814;51.134;16.980;2023-04-06T05:38:19;55.10;;;31.50;;
76848;SDS011;65814;51.134;16.980;2023-04-06T05:40:47;56.90;;;31.00;;
76848;SDS011;65814;51.134;16.980;2023-04-06T05:43:15;59.80;;;30.10;;
76848;SDS011;65814;51.134;16.980;2023-04-06T05:45:46;58.90;;;30.80;;
76848;SDS011;65814;51.134;16.980;2023-04-06T05:48:14;60.90;;;33.10;;
76848;SDS011;65814;51.134;16.980;2023-04-06T05:50:42;60.40;;;31.20;;
76848;SDS011;65814;51.134;16.980;2023-04-06T05:53:09;58.90;;;31.90;;
76848;SDS011;65814;51.134;16.980;2023-04-06T05:55:40;61.20;;;32.10;;
76848;SDS011;65814;51.134;16.980;2023-04-06T05:58:08;64.00;;;34.10;;
76848;SDS011;65814;51.134;16.980;2023-04-06T06:00:36;81.80;;;38.90;;
76848;SDS011;65814;51.134;16.980;2023-04-06T06:03:05;72.90;;;37.50;;
76848;SDS011;65814;51.134;16.980;2023-04-06T06:05:34;64.40;;;35.80;;
76848;SDS011;65814;51.134;16.980;2023-04-06T06:08:02;69.60;;;33.60;;
76848;SDS011;65814;51.134;16.980;2023-04-06T06:10:30;63.30;;;34.00;;
76848;SDS011;65814;51.134;16.980;2023-04-06T06:12:58;65.50;;;34.60;;
76848;SDS011;65814;51.134;16.980;2023-04-06T06:15:27;68.40;;;33.80;;
76848;SDS011;65814;51.134;16.980;2023-04-06T06:17:55;64.80;;;36.50;;
76848;SDS011;65814;51.134;16.980;2023-04-06T06:20:22;64.20;;;35.10;;
76848;SDS011;65814;51.134;16.980;2023-04-06T06:22:50;72.10;;;36.30;;
76848;SDS011;65814;51.134;16.980;2023-04-06T06:25:18;66.60;;;35.90;;
76848;SDS011;65814;51.134;16.980;2023-04-06T06:27:46;61.30;;;35.20;;
76848;SDS011;65814;51.134;16.980;2023-04-06T06:30:15;67.70;;;34.90;;
76848;SDS011;65814;51.134;16.980;2023-04-06T06:32:43;73.00;;;36.90;;
76848;SDS011;65814;51.134;16.980;2023-04-06T06:35:11;80.50;;;40.60;;
76848;SDS011;65814;51.134;16.980;2023-04-06T06:37:40;71.30;;;37.70;;
76848;SDS011;65814;51.134;16.980;2023-04-06T06:40:10;73.20;;;38.10;;
76848;SDS011;65814;51.134;16.980;2023-04-06T06:42:41;68.30;;;36.80;;
76848;SDS011;65814;51.134;16.980;2023-04-06T06:45:09;67.60;;;36.20;;
76848;SDS011;65814;51.134;16.980;2023-04-06T06:47:37;71.90;;;35.10;;
76848;SDS011;65814;51.134;16.980;2023-04-06T06:50:05;68.80;;;35.20;;
76848;SDS011;65814;51.134;16.980;2023-04-06T06:52:34;59.80;;;34.10;;
76848;SDS011;65814;51.134;16.980;2023-04-06T06:55:02;65.70;;;35.90;;
76848;SDS011;65814;51.134;16.980;2023-04-06T06:57:30;76.30;;;40.20;;
76848;SDS011;65814;51.134;16.980;2023-04-06T06:59:59;69.90;;;38.10;;
76848;SDS011;65814;51.134;16.980;2023-04-06T07:02:27;62.40;;;33.80;;
76848;SDS011;65814;51.134;16.980;2023-04-06T07:04:56;63.30;;;35.60;;
76848;SDS011;65814;51.134;16.980;2023-04-06T07:07:24;74.70;;;41.10;;
76848;SDS011;65814;51.134;16.980;2023-04-06T07:09:52;76.00;;;42.20;;
76848;SDS011;65814;51.134;16.980;2023-04-06T07:12:20;65.70;;;38.10;;
76848;SDS011;65814;51.134;16.980;2023-04-06T07:14:48;60.00;;;33.00;;
76848;SDS011;65814;51.134;16.980;2023-04-06T07:17:16;59.90;;;33.10;;
76848;SDS011;65814;51.134;16.980;2023-04-06T07:19:44;58.50;;;32.60;;
76848;SDS011;65814;51.134;16.980;2023-04-06T07:22:13;53.70;;;31.90;;
76848;SDS011;65814;51.134;16.980;2023-04-06T07:24:41;56.30;;;33.20;;
76848;SDS011;65814;51.134;16.980;2023-04-06T07:27:08;58.40;;;31.20;;
76848;SDS011;65814;51.134;16.980;2023-04-06T07:29:37;65.90;;;33.90;;
76848;SDS011;65814;51.134;16.980;2023-04-06T07:32:04;58.50;;;32.70;;
76848;SDS011;65814;51.134;16.980;2023-04-06T07:34:32;68.30;;;33.70;;
76848;SDS011;65814;51.134;16.980;2023-04-06T07:37:00;63.00;;;32.90;;
76848;SDS011;65814;51.134;16.980;2023-04-06T07:39:30;64.40;;;35.60;;
76848;SDS011;65814;51.134;16.980;2023-04-06T07:41:58;62.70;;;34.60;;
76848;SDS011;65814;51.134;16.980;2023-04-06T07:44:26;77.60;;;40.30;;
76848;SDS011;65814;51.134;16.980;2023-04-06T07:46:54;68.90;;;41.20;;
76848;SDS011;65814;51.134;16.980;2023-04-06T07:49:22;62.80;;;35.00;;
76848;SDS011;65814;51.134;16.980;2023-04-06T07:51:50;60.40;;;32.30;;
76848;SDS011;65814;51.134;16.980;2023-04-06T07:54:18;50.30;;;28.10;;
76848;SDS011;65814;51.134;16.980;2023-04-06T07:56:46;54.10;;;29.90;;
76848;SDS011;65814;51.134;16.980;2023-04-06T07:59:14;62.20;;;33.10;;
76848;SDS011;65814;51.134;16.980;2023-04-06T08:01:42;60.60;;;33.80;;
76848;SDS011;65814;51.134;16.980;2023-04-06T08:04:10;50.70;;;30.30;;
76848;SDS011;65814;51.134;16.980;2023-04-06T08:06:39;46.60;;;24.50;;
76848;SDS011;65814;51.134;16.980;2023-04-06T08:09:08;44.70;;;24.80;;
76848;SDS011;65814;51.134;16.980;2023-04-06T08:11:36;40.30;;;21.90;;
76848;SDS011;65814;51.134;16.980;2023-04-06T08:14:05;35.70;;;21.70;;
76848;SDS011;65814;51.134;16.980;2023-04-06T08:16:33;36.90;;;21.60;;
76848;SDS011;65814;51.134;16.980;2023-04-06T08:19:01;35.40;;;19.90;;
76848;SDS011;65814;51.134;16.980;2023-04-06T08:21:29;31.90;;;19.60;;
76848;SDS011;65814;51.134;16.980;2023-04-06T08:23:57;31.80;;;19.60;;
76848;SDS011;65814;51.134;16.980;2023-04-06T08:26:26;34.20;;;19.30;;
76848;SDS011;65814;51.134;16.980;2023-04-06T08:28:53;33.20;;;20.50;;
76848;SDS011;65814;51.134;16.980;2023-04-06T08:31:21;33.00;;;18.50;;
76848;SDS011;65814;51.134;16.980;2023-04-06T08:33:49;29.60;;;17.00;;
76848;SDS011;65814;51.134;16.980;2023-04-06T08:36:17;30.50;;;18.60;;
76848;SDS011;65814;51.134;16.980;2023-04-06T08:38:50;37.40;;;15.60;;
76848;SDS011;65814;51.134;16.980;2023-04-06T08:41:18;27.90;;;15.20;;
76848;SDS011;65814;51.134;16.980;2023-04-06T08:43:48;28.80;;;15.90;;
76848;SDS011;65814;51.134;16.980;2023-04-06T08:46:17;25.90;;;15.80;;
76848;SDS011;65814;51.134;16.980;2023-04-06T08:48:46;25.90;;;13.90;;
76848;SDS011;65814;51.134;16.980;2023-04-06T08:51:17;24.30;;;14.20;;
76848;SDS011;65814;51.134;16.980;2023-04-06T08:53:46;26.60;;;13.70;;
76848;SDS011;65814;51.134;16.980;2023-04-06T08:56:16;22.80;;;13.60;;
76848;SDS011;65814;51.134;16.980;2023-04-06T08:58:44;24.10;;;12.40;;
76848;SDS011;65814;51.134;16.980;2023-04-06T09:01:12;22.40;;;13.30;;
76848;SDS011;65814;51.134;16.980;2023-04-06T09:03:41;21.60;;;12.00;;
76848;SDS011;65814;51.134;16.980;2023-04-06T09:06:10;23.60;;;14.00;;
76848;SDS011;65814;51.134;16.980;2023-04-06T09:08:40;22.20;;;13.10;;
76848;SDS011;65814;51.134;16.980;2023-04-06T09:11:08;24.90;;;12.90;;
76848;SDS011;65814;51.134;16.980;2023-04-06T09:13:46;24.10;;;12.80;;
76848;SDS011;65814;51.134;16.980;2023-04-06T09:16:16;19.70;;;12.60;;
76848;SDS011;65814;51.134;16.980;2023-04-06T09:18:44;23.30;;;14.00;;
76848;SDS011;65814;51.134;16.980;2023-04-06T09:21:12;14.70;;;9.80;;
76848;SDS011;65814;51.134;16.980;2023-04-06T09:23:40;14.50;;;9.30;;
76848;SDS011;65814;51.134;16.980;2023-04-06T09:28:45;17.20;;;10.60;;
76848;SDS011;65814;51.134;16.980;2023-04-06T09:31:15;13.90;;;8.90;;
76848;SDS011;65814;51.134;16.980;2023-04-06T09:33:48;15.40;;;9.30;;
76848;SDS011;65814;51.134;16.980;2023-04-06T09:36:17;16.20;;;8.90;;
76848;SDS011;65814;51.134;16.980;2023-04-06T09:38:53;19.00;;;9.40;;
76848;SDS011;65814;51.134;16.980;2023-04-06T09:41:40;18.50;;;10.50;;
76848;SDS011;65814;51.134;16.980;2023-04-06T09:44:09;15.10;;;9.20;;
76848;SDS011;65814;51.134;16.980;2023-04-06T09:46:39;15.10;;;8.00;;
76848;SDS011;65814;51.134;16.980;2023-04-06T09:49:30;17.30;;;9.50;;
76848;SDS011;65814;51.134;16.980;2023-04-06T09:51:59;14.50;;;8.70;;
76848;SDS011;65814;51.134;16.980;2023-04-06T09:54:28;14.90;;;8.40;;
76848;SDS011;65814;51.134;16.980;2023-04-06T10:02:29;13.80;;;9.30;;
76848;SDS011;65814;51.134;16.980;2023-04-06T10:05:09;15.20;;;8.30;;
76848;SDS011;65814;51.134;16.980;2023-04-06T10:07:55;13.40;;;8.10;;
76848;SDS011;65814;51.134;16.980;2023-04-06T10:10:28;14.60;;;8.00;;
76848;SDS011;65814;51.134;16.980;2023-04-06T10:13:04;15.00;;;8.90;;
76848;SDS011;65814;51.134;16.980;2023-04-06T10:15:35;13.10;;;8.30;;
76848;SDS011;65814;51.134;16.980;2023-04-06T10:18:11;13.60;;;7.90;;
76848;SDS011;65814;51.134;16.980;2023-04-06T10:26:02;11.20;;;7.40;;
76848;SDS011;65814;51.134;16.980;2023-04-06T10:28:31;13.50;;;8.20;;
76848;SDS011;65814;51.134;16.980;2023-04-06T10:31:01;11.20;;;7.00;;
76848;SDS011;65814;51.134;16.980;2023-04-06T10:33:32;12.10;;;8.50;;
76848;SDS011;65814;51.134;16.980;2023-04-06T10:36:13;10.10;;;7.60;;
76848;SDS011;65814;51.134;16.980;2023-04-06T10:38:42;12.60;;;8.70;;
76848;SDS011;65814;51.134;16.980;2023-04-06T10:41:11;10.10;;;6.90;;
76848;SDS011;65814;51.134;16.980;2023-04-06T10:43:40;10.00;;;6.70;;
76848;SDS011;65814;51.134;16.980;2023-04-06T10:46:10;9.70;;;6.40;;
76848;SDS011;65814;51.134;16.980;2023-04-06T10:48:48;13.00;;;7.00;;
76848;SDS011;65814;51.134;16.980;2023-04-06T10:51:18;10.70;;;6.70;;
76848;SDS011;65814;51.134;16.980;2023-04-06T10:53:46;14.00;;;7.80;;
76848;SDS011;65814;51.134;16.980;2023-04-06T10:56:16;11.50;;;6.90;;
76848;SDS011;65814;51.134;16.980;2023-04-06T10:58:49;13.50;;;7.20;;
76848;SDS011;65814;51.134;16.980;2023-04-06T11:01:19;10.30;;;7.30;;
76848;SDS011;65814;51.134;16.980;2023-04-06T11:03:53;15.30;;;8.60;;
76848;SDS011;65814;51.134;16.980;2023-04-06T11:06:23;11.80;;;8.40;;
76848;SDS011;65814;51.134;16.980;2023-04-06T11:08:51;12.20;;;8.30;;
76848;SDS011;65814;51.134;16.980;2023-04-06T11:11:20;11.60;;;8.50;;
76848;SDS011;65814;51.134;16.980;2023-04-06T11:13:56;11.70;;;8.00;;
76848;SDS011;65814;51.134;16.980;2023-04-06T11:16:26;10.70;;;7.40;;
76848;SDS011;65814;51.134;16.980;2023-04-06T11:18:55;15.80;;;9.40;;
76848;SDS011;65814;51.134;16.980;2023-04-06T11:24:14;12.00;;;7.90;;
76848;SDS011;65814;51.134;16.980;2023-04-06T11:29:19;10.50;;;7.20;;
76848;SDS011;65814;51.134;16.980;2023-04-06T11:32:02;13.70;;;8.10;;
76848;SDS011;65814;51.134;16.980;2023-04-06T11:34:38;12.90;;;8.20;;
76848;SDS011;65814;51.134;16.980;2023-04-06T11:37:08;10.60;;;7.40;;
76848;SDS011;65814;51.134;16.980;2023-04-06T11:39:41;12.30;;;7.60;;
76848;SDS011;65814;51.134;16.980;2023-04-06T11:42:29;11.10;;;8.80;;
76848;SDS011;65814;51.134;16.980;2023-04-06T11:44:57;13.30;;;8.80;;
76848;SDS011;65814;51.134;16.980;2023-04-06T11:47:29;15.10;;;8.90;;
76848;SDS011;65814;51.134;16.980;2023-04-06T11:50:09;9.80;;;7.70;;
76848;SDS011;65814;51.134;16.980;2023-04-06T11:52:41;12.80;;;8.30;;
76848;SDS011;65814;51.134;16.980;2023-04-06T11:55:18;12.10;;;8.10;;
76848;SDS011;65814;51.134;16.980;2023-04-06T11:57:47;17.50;;;9.10;;
76848;SDS011;65814;51.134;16.980;2023-04-06T12:00:15;11.10;;;7.70;;
76848;SDS011;65814;51.134;16.980;2023-04-06T12:02:46;14.20;;;8.40;;
76848;SDS011;65814;51.134;16.980;2023-04-06T12:05:15;14.50;;;9.10;;
76848;SDS011;65814;51.134;16.980;2023-04-06T12:07:43;14.10;;;8.60;;
76848;SDS011;65814;51.134;16.980;2023-04-06T12:10:10;11.20;;;8.70;;
76848;SDS011;65814;51.134;16.980;2023-04-06T12:12:39;12.20;;;8.70;;
76848;SDS011;65814;51.134;16.980;2023-04-06T12:15:07;12.30;;;8.90;;
76848;SDS011;65814;51.134;16.980;2023-04-06T12:17:35;11.70;;;7.90;;
76848;SDS011;65814;51.134;16.980;2023-04-06T12:20:04;13.20;;;8.70;;
76848;SDS011;65814;51.134;16.980;2023-04-06T12:22:51;12.70;;;8.00;;
76848;SDS011;65814;51.134;16.980;2023-04-06T12:25:19;16.10;;;8.90;;
76848;SDS011;65814;51.134;16.980;2023-04-06T12:27:47;12.70;;;8.50;;
76848;SDS011;65814;51.134;16.980;2023-04-06T12:30:15;12.80;;;8.60;;
76848;SDS011;65814;51.134;16.980;2023-04-06T12:32:43;15.60;;;8.90;;
76848;SDS011;65814;51.134;16.980;2023-04-06T12:35:12;12.00;;;9.10;;
76848;SDS011;65814;51.134;16.980;2023-04-06T12:37:43;10.80;;;8.80;;
76848;SDS011;65814;51.134;16.980;2023-04-06T12:40:10;13.30;;;8.90;;
76848;SDS011;65814;51.134;16.980;2023-04-06T12:42:39;15.50;;;10.00;;
76848;SDS011;65814;51.134;16.980;2023-04-06T12:45:08;14.00;;;8.70;;
76848;SDS011;65814;51.134;16.980;2023-04-06T12:47:37;15.60;;;8.80;;
76848;SDS011;65814;51.134;16.980;2023-04-06T12:50:06;12.70;;;8.80;;
76848;SDS011;65814;51.134;16.980;2023-04-06T12:52:34;11.90;;;8.60;;
76848;SDS011;65814;51.134;16.980;2023-04-06T12:55:04;12.00;;;8.60;;
76848;SDS011;65814;51.134;16.980;2023-04-06T12:57:33;11.80;;;8.00;;
76848;SDS011;65814;51.134;16.980;2023-04-06T13:00:01;14.40;;;9.00;;
76848;SDS011;65814;51.134;16.980;2023-04-06T13:02:32;14.20;;;9.50;;
76848;SDS011;65814;51.134;16.980;2023-04-06T13:05:00;10.90;;;8.00;;
76848;SDS011;65814;51.134;16.980;2023-04-06T13:07:28;11.70;;;8.50;;
76848;SDS011;65814;51.134;16.980;2023-04-06T13:09:56;14.30;;;8.50;;
76848;SDS011;65814;51.134;16.980;2023-04-06T13:12:24;12.90;;;8.40;;
76848;SDS011;65814;51.134;16.980;2023-04-06T13:14:53;12.90;;;8.90;;
76848;SDS011;65814;51.134;16.980;2023-04-06T13:17:21;11.20;;;7.90;;
76848;SDS011;65814;51.134;16.980;2023-04-06T13:19:50;12.40;;;7.20;;
76848;SDS011;65814;51.134;16.980;2023-04-06T13:22:18;11.10;;;7.90;;
76848;SDS011;65814;51.134;16.980;2023-04-06T13:24:45;11.80;;;7.60;;
76848;SDS011;65814;51.134;16.980;2023-04-06T13:27:13;10.90;;;7.70;;
76848;SDS011;65814;51.134;16.980;2023-04-06T13:29:42;11.40;;;7.90;;
76848;SDS011;65814;51.134;16.980;2023-04-06T13:32:10;10.00;;;7.20;;
76848;SDS011;65814;51.134;16.980;2023-04-06T13:34:38;9.80;;;6.80;;
76848;SDS011;65814;51.134;16.980;2023-04-06T13:37:06;11.40;;;7.40;;
76848;SDS011;65814;51.134;16.980;2023-04-06T13:39:34;14.00;;;7.10;;
76848;SDS011;65814;51.134;16.980;2023-04-06T13:42:02;10.90;;;7.20;;
76848;SDS011;65814;51.134;16.980;2023-04-06T13:44:30;9.30;;;7.50;;
76848;SDS011;65814;51.134;16.980;2023-04-06T13:46:58;11.00;;;8.70;;
76848;SDS011;65814;51.134;16.980;2023-04-06T13:49:27;12.30;;;9.70;;
76848;SDS011;65814;51.134;16.980;2023-04-06T13:51:54;15.20;;;8.30;;
76848;SDS011;65814;51.134;16.980;2023-04-06T13:54:23;12.80;;;8.90;;
76848;SDS011;65814;51.134;16.980;2023-04-06T13:56:51;14.50;;;9.20;;
76848;SDS011;65814;51.134;16.980;2023-04-06T13:59:19;13.20;;;8.30;;
76848;SDS011;65814;51.134;16.980;2023-04-06T14:01:47;13.90;;;9.10;;
76848;SDS011;65814;51.134;16.980;2023-04-06T14:04:15;14.20;;;8.80;;
76848;SDS011;65814;51.134;16.980;2023-04-06T14:06:44;16.20;;;10.70;;
76848;SDS011;65814;51.134;16.980;2023-04-06T14:09:13;15.30;;;9.20;;
76848;SDS011;65814;51.134;16.980;2023-04-06T14:11:41;11.00;;;9.20;;
76848;SDS011;65814;51.134;16.980;2023-04-06T14:14:09;15.20;;;9.80;;
76848;SDS011;65814;51.134;16.980;2023-04-06T14:16:38;11.30;;;9.00;;
76848;SDS011;65814;51.134;16.980;2023-04-06T14:19:06;13.50;;;8.80;;
76848;SDS011;65814;51.134;16.980;2023-04-06T14:21:34;14.00;;;10.40;;
76848;SDS011;65814;51.134;16.980;2023-04-06T14:24:02;13.20;;;9.80;;
76848;SDS011;65814;51.134;16.980;2023-04-06T14:26:30;14.60;;;10.80;;
76848;SDS011;65814;51.134;16.980;2023-04-06T14:28:59;13.60;;;9.60;;
76848;SDS011;65814;51.134;16.980;2023-04-06T14:31:28;16.10;;;11.30;;
76848;SDS011;65814;51.134;16.980;2023-04-06T14:33:56;11.90;;;9.50;;
76848;SDS011;65814;51.134;16.980;2023-04-06T14:36:24;18.00;;;9.40;;
76848;SDS011;65814;51.134;16.980;2023-04-06T14:38:57;12.60;;;8.70;;
76848;SDS011;65814;51.134;16.980;2023-04-06T14:41:25;11.30;;;8.70;;
76848;SDS011;65814;51.134;16.980;2023-04-06T14:43:53;12.70;;;9.50;;